Time;durP1;ratioP1;P1;durP2;ratioP2;P2;SDS_P1;SDS_P2;PMS_P1;PMS_P2;Temp;Humidity;BMP_temperature;BMP_pressure;BME280_temperature;BME280_humidity;BME280_pressure;Samples;Min_cycle;Max_cycle;Signal;HPM_P1;HPM_P2
2023/04/05 00:00:37;;;;;;;20.00;13.30;;;;;;;1.73;nan;102486.22;4995454;28;20086;-41
2023/04/05 00:03:03;;;;;;;21.60;13.85;;;;;;;1.73;nan;102500.09;4995186;28;20045;-43
2023/04/05 00:05:33;;;;;;;18.85;13.50;;;;;;;1.70;nan;102495.69;4993513;28;20034;-42
2023/04/05 00:08:00;;;;;;;18.60;14.55;;;;;;;1.63;nan;102470.38;4993660;28;20049;-41
2023/04/05 00:10:26;;;;;;;19.30;14.70;;;;;;;1.32;nan;102423.59;4994572;28;20518;-42
2023/04/05 00:12:52;;;;;;;21.55;14.98;;;;;;;1.65;nan;102478.22;4994919;28;20039;-42
2023/04/05 00:15:17;;;;;;;17.90;15.07;;;;;;;1.03;nan;102385.53;4994253;28;20038;-44
2023/04/05 00:17:44;;;;;;;18.48;14.15;;;;;;;1.53;nan;102460.56;4994571;28;20038;-42
2023/04/05 00:20:10;;;;;;;19.50;14.85;;;;;;;1.59;nan;102493.63;4994700;28;20046;-43
2023/04/05 00:22:35;;;;;;;19.13;14.82;;;;;;;1.43;nan;102457.66;4994801;28;20121;-41
2023/04/05 00:25:02;;;;;;;21.92;15.50;;;;;;;1.52;nan;102463.09;4994551;28;20073;-42
2023/04/05 00:27:27;;;;;;;21.35;16.30;;;;;;;1.48;nan;102472.53;5005846;28;20041;-40
2023/04/05 00:29:52;;;;;;;21.63;14.80;;;;;;;1.02;nan;102400.19;5014199;28;20037;-49
2023/04/05 00:32:18;;;;;;;19.05;15.40;;;;;;;1.40;nan;102479.19;5014118;28;20375;-43
2023/04/05 00:34:43;;;;;;;24.23;16.25;;;;;;;0.89;nan;102386.81;5014113;28;20045;-41
2023/04/05 00:37:08;;;;;;;23.88;15.68;;;;;;;1.30;nan;102461.59;5014080;28;20045;-43
2023/04/05 00:39:34;;;;;;;20.88;15.93;;;;;;;1.29;nan;102469.31;5012809;28;20485;-43
2023/04/05 00:42:02;;;;;;;20.65;16.45;;;;;;;0.82;nan;102387.44;5013843;28;20044;-43
2023/04/05 00:44:28;;;;;;;21.27;15.00;;;;;;;1.14;nan;102444.66;5011395;28;20379;-46
2023/04/05 00:46:54;;;;;;;21.42;15.40;;;;;;;1.19;nan;102456.91;5013621;28;20040;-42
2023/04/05 00:49:20;;;;;;;22.45;17.00;;;;;;;0.75;nan;102388.97;5012617;28;20087;-46
2023/04/05 00:51:46;;;;;;;23.65;17.27;;;;;;;1.10;nan;102436.75;5012789;28;20133;-43
2023/04/05 00:54:12;;;;;;;22.63;17.17;;;;;;;0.64;nan;102361.84;5012230;28;20081;-40
2023/04/05 00:56:38;;;;;;;25.35;18.17;;;;;;;0.70;nan;102368.94;5013680;28;20106;-42
2023/04/05 00:59:04;;;;;;;22.48;18.30;;;;;;;1.10;nan;102442.81;5008433;28;20041;-46
2023/04/05 01:01:31;;;;;;;23.88;17.30;;;;;;;0.61;nan;102363.44;4993513;28;20129;-40
2023/04/05 01:04:01;;;;;;;27.73;18.27;;;;;;;1.03;nan;102456.41;4994068;28;20030;-42
2023/04/05 01:06:41;;;;;;;25.45;16.80;;;;;;;0.99;nan;102440.72;4994190;28;20026;-42
2023/04/05 01:09:19;;;;;;;26.83;17.60;;;;;;;0.94;nan;102439.69;5009354;28;20038;-41
2023/04/05 01:11:46;;;;;;;23.00;18.30;;;;;;;0.90;nan;102445.63;4993689;28;20046;-45
2023/04/05 01:14:11;;;;;;;22.65;17.17;;;;;;;0.43;nan;102361.13;4993771;28;20038;-42
2023/04/05 01:16:36;;;;;;;23.38;18.23;;;;;;;0.40;nan;102355.84;4993717;28;20068;-42
2023/04/05 01:19:03;;;;;;;21.38;17.48;;;;;;;0.80;nan;102434.06;4992696;28;20046;-45
2023/04/05 01:21:44;;;;;;;21.42;17.13;;;;;;;0.78;nan;102434.84;4993609;28;20072;-44
2023/04/05 01:24:29;;;;;;;24.52;18.33;;;;;;;0.76;nan;102426.16;4992436;28;20062;-44
2023/04/05 01:27:07;;;;;;;22.55;17.15;;;;;;;0.71;nan;102425.97;4993338;28;20096;-43
2023/04/05 01:29:38;;;;;;;22.60;17.35;;;;;;;0.72;nan;102421.69;4992084;28;20033;-43
2023/04/05 01:32:10;;;;;;;23.27;18.25;;;;;;;0.69;nan;102443.19;4992382;28;20053;-41
2023/04/05 01:34:41;;;;;;;25.10;19.15;;;;;;;0.66;nan;102417.19;4992210;28;20054;-44
2023/04/05 01:37:10;;;;;;;24.95;17.58;;;;;;;0.31;nan;102359.03;5008279;28;20501;-41
2023/04/05 01:39:37;;;;;;;20.80;16.45;;;;;;;0.24;nan;102358.75;4993314;28;20077;-43
2023/04/05 01:42:02;;;;;;;22.67;16.13;;;;;;;0.26;nan;102360.59;4992087;28;20039;-43
2023/04/05 01:44:28;;;;;;;21.77;17.48;;;;;;;0.35;nan;102375.56;4992243;28;20026;-40
2023/04/05 01:46:54;;;;;;;24.80;17.52;;;;;;;0.10;nan;102335.00;4993065;28;20026;-42
2023/04/05 01:49:19;;;;;;;25.70;19.13;;;;;;;0.06;nan;102316.72;4991810;28;20030;-41
2023/04/05 01:51:45;;;;;;;23.52;17.13;;;;;;;0.09;nan;102332.38;4993274;28;20100;-43
2023/04/05 01:54:10;;;;;;;25.80;19.20;;;;;;;0.46;nan;102395.81;5005392;28;20065;-42
2023/04/05 01:56:35;;;;;;;21.77;17.48;;;;;;;0.08;nan;102328.00;5012748;28;20042;-43
2023/04/05 01:59:01;;;;;;;21.77;17.25;;;;;;;0.39;nan;102380.00;5011727;28;20041;-41
2023/04/05 02:01:26;;;;;;;22.67;18.08;;;;;;;0.45;nan;102385.38;5011541;28;20069;-44
2023/04/05 02:03:51;;;;;;;24.13;19.13;;;;;;;-0.05;nan;102311.16;5012532;28;20034;-44
2023/04/05 02:06:17;;;;;;;23.90;17.48;;;;;;;0.40;nan;102395.59;5012429;28;20057;-40
2023/04/05 02:08:42;;;;;;;24.40;17.60;;;;;;;0.26;nan;102363.19;5012557;28;20037;-41
2023/04/05 02:11:08;;;;;;;24.48;17.65;;;;;;;0.32;nan;102384.06;5000797;28;20042;-42
2023/04/05 02:13:33;;;;;;;20.52;16.70;;;;;;;0.25;nan;102371.78;4992551;28;20044;-44
2023/04/05 02:15:58;;;;;;;23.77;17.48;;;;;;;0.29;nan;102368.44;4992856;28;20061;-44
2023/04/05 02:18:30;;;;;;;20.75;18.08;;;;;;;-0.16;nan;102294.41;4991705;28;20060;-40
2023/04/05 02:21:06;;;;;;;23.35;18.35;;;;;;;0.00;nan;102320.00;4992394;28;20051;-41
2023/04/05 02:23:32;;;;;;;23.70;16.38;;;;;;;-0.11;nan;102309.25;4992653;28;20654;-41
2023/04/05 02:25:58;;;;;;;27.63;17.80;;;;;;;-0.25;nan;102282.03;4991667;28;20081;-41
2023/04/05 02:28:23;;;;;;;18.90;15.35;;;;;;;0.19;nan;102360.31;5008261;28;20057;-43
2023/04/05 02:30:49;;;;;;;23.88;17.40;;;;;;;0.16;nan;102353.31;5012062;28;20128;-45
2023/04/05 02:33:14;;;;;;;20.27;16.27;;;;;;;-0.32;nan;102280.03;5012182;28;20072;-46
2023/04/05 02:35:40;;;;;;;22.40;14.93;;;;;;;0.09;nan;102360.84;5012418;28;20034;-43
2023/04/05 02:38:05;;;;;;;23.90;14.57;;;;;;;-0.12;nan;102325.59;5012233;28;20539;-41
2023/04/05 02:40:31;;;;;;;19.65;14.20;;;;;;;-0.02;nan;102347.50;5015482;28;20038;-44
2023/04/05 02:42:56;;;;;;;21.42;15.93;;;;;;;-0.32;nan;102297.31;5014389;28;20444;-42
2023/04/05 02:45:22;;;;;;;19.95;14.90;;;;;;;-0.12;nan;102354.06;5016220;28;20049;-42
2023/04/05 02:47:47;;;;;;;20.98;15.35;;;;;;;-1.17;nan;102157.25;5014554;28;20038;-42
2023/04/05 02:50:13;;;;;;;20.30;14.82;;;;;;;-0.45;nan;102279.59;5015924;28;20422;-42
2023/04/05 02:52:39;;;;;;;17.77;14.10;;;;;;;-0.41;nan;102295.28;5016229;28;20034;-45
2023/04/05 02:55:05;;;;;;;21.63;15.45;;;;;;;-0.14;nan;102344.50;5016144;28;20035;-44
2023/04/05 02:57:31;;;;;;;19.60;14.85;;;;;;;-0.09;nan;102354.19;4998823;28;20317;-42
2023/04/05 02:59:56;;;;;;;22.88;15.77;;;;;;;-0.51;nan;102277.66;5001837;28;20157;-41
2023/04/05 03:02:21;;;;;;;19.10;14.77;;;;;;;-0.24;nan;102325.19;4996646;28;20440;-40
2023/04/05 03:04:47;;;;;;;18.10;14.50;;;;;;;-0.17;nan;102342.69;4996261;28;20030;-40
2023/04/05 03:07:17;;;;;;;18.25;14.07;;;;;;;-0.20;nan;102336.50;4995831;28;20097;-41
2023/04/05 03:09:46;;;;;;;22.00;16.10;;;;;;;-0.57;nan;102274.84;4995904;28;20060;-42
2023/04/05 03:12:11;;;;;;;22.33;15.00;;;;;;;-0.23;nan;102345.06;4995996;28;20035;-45
2023/04/05 03:14:37;;;;;;;20.13;14.63;;;;;;;-0.64;nan;102268.56;4996959;28;20046;-43
2023/04/05 03:17:03;;;;;;;21.33;15.63;;;;;;;-0.35;nan;102317.91;5015262;28;20040;-43
2023/04/05 03:19:28;;;;;;;21.55;14.48;;;;;;;-0.66;nan;102274.53;5015589;28;20042;-44
2023/04/05 03:21:53;;;;;;;19.52;13.75;;;;;;;-0.28;nan;102338.84;5015512;28;20374;-44
2023/04/05 03:24:19;;;;;;;21.63;14.88;;;;;;;-0.31;nan;102343.91;5015330;28;20064;-43
2023/04/05 03:26:45;;;;;;;22.30;13.95;;;;;;;-0.34;nan;102332.56;5015051;28;20270;-43
2023/04/05 03:29:11;;;;;;;20.73;14.27;;;;;;;-0.31;nan;102358.56;5015323;28;20025;-43
2023/04/05 03:31:36;;;;;;;17.45;13.70;;;;;;;-0.33;nan;102339.50;5014017;28;20033;-41
2023/04/05 03:34:02;;;;;;;17.17;13.43;;;;;;;-0.33;nan;102332.63;5014063;28;20037;-41
2023/04/05 03:36:29;;;;;;;18.23;13.55;;;;;;;-0.38;nan;102322.97;5015031;28;20041;-42
2023/04/05 03:38:55;;;;;;;20.65;14.55;;;;;;;-0.35;nan;102329.09;5015177;28;20386;-42
2023/04/05 03:41:20;;;;;;;17.42;14.07;;;;;;;-0.35;nan;102328.25;5014942;28;20045;-43
2023/04/05 03:43:47;;;;;;;20.05;13.73;;;;;;;-0.72;nan;102272.59;5014667;28;20070;-39
2023/04/05 03:46:12;;;;;;;21.58;14.93;;;;;;;-0.39;nan;102326.38;5014804;28;20056;-43
2023/04/05 03:48:38;;;;;;;17.42;14.02;;;;;;;-0.41;nan;102317.69;5014910;28;20473;-39
2023/04/05 03:51:03;;;;;;;20.88;14.30;;;;;;;-0.49;nan;102307.03;4996576;28;20046;-42
2023/04/05 03:53:28;;;;;;;18.27;14.45;;;;;;;-0.71;nan;102265.72;4993623;28;20117;-41
2023/04/05 03:55:54;;;;;;;21.08;13.98;;;;;;;-0.48;nan;102313.97;4995267;28;20034;-45
2023/04/05 03:58:20;;;;;;;20.30;14.68;;;;;;;-0.52;nan;102316.38;4993724;28;20042;-45
2023/04/05 04:00:46;;;;;;;20.77;15.45;;;;;;;-0.48;nan;102329.50;4993759;28;20034;-43
2023/04/05 04:03:12;;;;;;;22.65;15.50;;;;;;;-0.54;nan;102315.47;4994717;28;20302;-41
2023/04/05 04:05:38;;;;;;;24.67;16.05;;;;;;;-0.50;nan;102338.91;4993471;28;20405;-44
2023/04/05 04:08:06;;;;;;;19.75;15.48;;;;;;;-0.51;nan;102329.38;4993668;28;20045;-41
2023/04/05 04:10:33;;;;;;;23.98;15.88;;;;;;;-0.84;nan;102259.22;4994847;28;20035;-41
2023/04/05 04:12:58;;;;;;;24.77;16.55;;;;;;;-0.52;nan;102313.81;4994650;28;20478;-41
2023/04/05 04:15:24;;;;;;;28.67;17.75;;;;;;;-0.57;nan;102317.13;4994742;28;20073;-41
2023/04/05 04:17:49;;;;;;;18.77;14.43;;;;;;;-0.93;nan;102255.41;4994723;28;20470;-42
2023/04/05 04:20:14;;;;;;;20.67;15.52;;;;;;;-0.96;nan;102268.25;4994339;28;20065;-40
2023/04/05 04:22:40;;;;;;;21.73;14.57;;;;;;;-0.67;nan;102315.00;4994436;28;20101;-39
2023/04/05 04:25:09;;;;;;;22.50;15.50;;;;;;;-0.97;nan;102261.31;4994835;28;20134;-43
2023/04/05 04:27:35;;;;;;;22.50;16.05;;;;;;;-0.94;nan;102267.50;4993349;28;20068;-40
2023/04/05 04:30:02;;;;;;;20.75;15.45;;;;;;;-0.68;nan;102313.28;4994408;28;20035;-42
2023/04/05 04:32:46;;;;;;;22.77;16.80;;;;;;;-1.01;nan;102257.75;4994477;28;20027;-41
2023/04/05 04:35:16;;;;;;;22.23;15.57;;;;;;;-0.70;nan;102314.03;4994508;28;20100;-44
2023/04/05 04:37:46;;;;;;;27.45;16.65;;;;;;;-0.70;nan;102304.56;4994066;28;20383;-42
2023/04/05 04:40:16;;;;;;;21.70;16.27;;;;;;;-1.08;nan;102241.97;4994400;28;20169;-41
2023/04/05 04:42:43;;;;;;;26.30;17.08;;;;;;;-0.75;nan;102308.69;4994141;28;20112;-42
2023/04/05 04:45:10;;;;;;;24.23;15.77;;;;;;;-0.76;nan;102309.50;4994176;28;20045;-42
2023/04/05 04:47:36;;;;;;;20.80;15.13;;;;;;;-1.14;nan;102243.47;4994098;28;20478;-41
2023/04/05 04:50:03;;;;;;;25.10;16.83;;;;;;;-0.78;nan;102311.16;4994253;28;20037;-41
2023/04/05 04:52:29;;;;;;;22.67;16.15;;;;;;;-0.80;nan;102310.22;4992983;28;20057;-41
2023/04/05 04:54:54;;;;;;;21.48;15.63;;;;;;;-0.79;nan;102316.28;4992448;28;20406;-42
2023/04/05 04:57:19;;;;;;;25.90;16.88;;;;;;;-0.91;nan;102293.44;4992849;28;20042;-43
2023/04/05 04:59:45;;;;;;;23.63;16.75;;;;;;;-0.89;nan;102296.06;4992850;28;20062;-39
2023/04/05 05:02:10;;;;;;;23.80;16.45;;;;;;;-0.82;nan;102308.41;4993121;28;20065;-43
2023/04/05 05:04:35;;;;;;;22.77;16.25;;;;;;;-0.80;nan;102302.47;4991961;28;20065;-43
2023/04/05 05:07:01;;;;;;;24.63;16.23;;;;;;;-1.00;nan;102266.38;4993723;28;20038;-40
2023/04/05 05:09:26;;;;;;;23.52;16.15;;;;;;;-0.79;nan;102311.13;5008792;28;20205;-43
2023/04/05 05:11:51;;;;;;;27.13;16.65;;;;;;;-0.79;nan;102311.13;5007527;28;20030;-45
2023/04/05 05:14:17;;;;;;;25.23;17.75;;;;;;;-0.86;nan;102297.09;5011733;28;20030;-40
2023/04/05 05:16:43;;;;;;;25.55;16.38;;;;;;;-0.78;nan;102308.56;5013963;28;20045;-43
2023/04/05 05:19:08;;;;;;;19.85;15.65;;;;;;;-0.75;nan;102316.44;5003250;28;20137;-43
2023/04/05 05:21:35;;;;;;;24.13;16.85;;;;;;;-0.83;nan;102312.69;5012039;28;20142;-43
2023/04/05 05:24:00;;;;;;;25.30;16.92;;;;;;;-0.81;nan;102321.38;5012759;28;20041;-40
2023/04/05 05:26:26;;;;;;;25.02;16.88;;;;;;;-0.71;nan;102323.50;5012315;28;20030;-43
2023/04/05 05:28:51;;;;;;;24.63;16.70;;;;;;;-0.73;nan;102312.19;5012932;28;20474;-42
2023/04/05 05:31:17;;;;;;;21.13;16.13;;;;;;;-0.81;nan;102286.91;5011806;28;20500;-44
2023/04/05 05:33:44;;;;;;;25.95;17.58;;;;;;;-0.96;nan;102270.84;5012849;28;20029;-43
2023/04/05 05:36:10;;;;;;;26.77;16.60;;;;;;;-0.85;nan;102277.28;4999699;28;20553;-41
2023/04/05 05:38:35;;;;;;;21.17;15.93;;;;;;;-0.60;nan;102319.59;4993274;28;20117;-44
2023/04/05 05:41:01;;;;;;;25.65;16.02;;;;;;;-0.54;nan;102320.63;4992961;28;20034;-43
2023/04/05 05:43:26;;;;;;;23.98;15.77;;;;;;;-0.51;nan;102321.63;4991786;28;20031;-40
2023/04/05 05:45:51;;;;;;;21.98;16.20;;;;;;;-0.37;nan;102332.47;4992666;28;20474;-44
2023/04/05 05:48:16;;;;;;;20.83;15.93;;;;;;;-0.30;nan;102332.75;4993066;28;20041;-40
2023/04/05 05:50:43;;;;;;;22.25;16.05;;;;;;;-0.22;nan;102335.59;4993283;28;20035;-44
2023/04/05 05:53:09;;;;;;;22.88;16.10;;;;;;;-0.15;nan;102329.81;5025007;28;20044;-46
2023/04/05 05:55:35;;;;;;;20.48;14.90;;;;;;;-0.05;nan;102331.88;4993733;28;20117;-45
2023/04/05 05:58:00;;;;;;;24.55;16.35;;;;;;;0.01;nan;102326.91;4993359;28;20042;-40
2023/04/05 06:00:26;;;;;;;22.80;16.30;;;;;;;-0.24;nan;102254.47;4992897;28;20052;-44
2023/04/05 06:02:51;;;;;;;24.83;15.77;;;;;;;-0.17;nan;102256.41;4991638;28;20041;-42
2023/04/05 06:05:17;;;;;;;23.67;15.65;;;;;;;0.39;nan;102323.88;5007787;28;20118;-44
2023/04/05 06:07:42;;;;;;;20.88;16.10;;;;;;;0.50;nan;102327.69;4991420;28;20034;-42
2023/04/05 06:10:08;;;;;;;22.42;16.08;;;;;;;0.28;nan;102263.09;4992498;28;20049;-44
2023/04/05 06:12:33;;;;;;;20.65;15.25;;;;;;;0.65;nan;102298.78;4991542;28;20045;-40
2023/04/05 06:15:00;;;;;;;20.48;16.40;;;;;;;0.84;nan;102323.56;4991516;28;20034;-43
2023/04/05 06:17:25;;;;;;;22.92;16.63;;;;;;;0.58;nan;102255.41;4991364;28;20061;-42
2023/04/05 06:19:50;;;;;;;21.27;15.95;;;;;;;0.97;nan;102297.19;4992436;28;20482;-40
2023/04/05 06:22:16;;;;;;;19.23;16.13;;;;;;;0.92;nan;102262.47;4992235;28;20038;-44
2023/04/05 06:24:42;;;;;;;21.52;15.40;;;;;;;1.36;nan;102313.91;4991660;28;20518;-44
2023/04/05 06:27:07;;;;;;;20.88;15.75;;;;;;;1.11;nan;102244.88;4992376;28;20177;-41
2023/04/05 06:29:32;;;;;;;22.80;16.00;;;;;;;1.29;nan;102252.31;4991453;28;20066;-43
2023/04/05 06:31:58;;;;;;;17.45;14.40;;;;;;;1.30;nan;102222.94;4992630;28;20124;-43
2023/04/05 06:34:23;;;;;;;19.25;14.60;;;;;;;1.95;nan;102296.47;4992781;28;20142;-40
2023/04/05 06:36:48;;;;;;;20.65;15.02;;;;;;;2.13;nan;102310.78;4975205;28;20121;-40
2023/04/05 06:39:14;;;;;;;18.80;13.75;;;;;;;2.32;nan;102300.88;4992039;28;20375;-43
2023/04/05 06:41:40;;;;;;;15.98;12.73;;;;;;;2.76;nan;102319.28;4992339;28;20101;-43
2023/04/05 06:44:05;;;;;;;18.70;12.70;;;;;;;3.16;nan;102314.94;4992535;28;20034;-42
2023/04/05 06:46:31;;;;;;;13.57;12.15;;;;;;;3.54;nan;102313.09;4992569;28;20046;-41
2023/04/05 06:48:57;;;;;;;18.10;11.82;;;;;;;3.90;nan;102314.69;4992376;28;20121;-44
2023/04/05 06:51:24;;;;;;;16.40;11.68;;;;;;;4.27;nan;102308.38;4992574;28;20620;-42
2023/04/05 06:53:49;;;;;;;12.85;11.02;;;;;;;4.48;nan;102316.56;4992395;28;20104;-42
2023/04/05 06:56:14;;;;;;;14.38;11.25;;;;;;;4.71;nan;102337.78;4998523;28;20477;-41
2023/04/05 06:58:41;;;;;;;14.82;11.65;;;;;;;4.45;nan;102266.09;5008343;28;20058;-42
2023/04/05 07:01:06;;;;;;;14.07;11.07;;;;;;;4.72;nan;102284.78;4991171;28;20129;-43
2023/04/05 07:03:32;;;;;;;12.85;10.48;;;;;;;4.71;nan;102280.41;4991390;28;20042;-43
2023/04/05 07:05:58;;;;;;;13.15;11.18;;;;;;;5.11;nan;102336.59;4990597;28;20058;-40
2023/04/05 07:08:24;;;;;;;15.43;11.95;;;;;;;5.18;nan;102325.41;4991265;28;20141;-43
2023/04/05 07:10:50;;;;;;;14.20;10.95;;;;;;;5.28;nan;102331.63;4974790;28;20042;-43
2023/04/05 07:13:16;;;;;;;11.57;9.85;;;;;;;5.58;nan;102342.44;4992344;28;20026;-44
2023/04/05 07:15:42;;;;;;;12.93;11.55;;;;;;;5.29;nan;102281.16;4997097;28;20100;-47
2023/04/05 07:18:08;;;;;;;11.80;10.57;;;;;;;5.50;nan;102284.91;5010689;28;20038;-44
2023/04/05 07:20:33;;;;;;;12.85;10.52;;;;;;;5.80;nan;102294.81;5011964;28;20046;-43
2023/04/05 07:22:59;;;;;;;15.85;10.25;;;;;;;6.31;nan;102333.66;5011837;28;20037;-42
2023/04/05 07:25:24;;;;;;;11.35;9.25;;;;;;;6.67;nan;102348.78;5011194;28;20176;-43
2023/04/05 07:27:51;;;;;;;13.18;9.52;;;;;;;6.71;nan;102288.63;5014447;28;20042;-41
2023/04/05 07:30:17;;;;;;;11.77;9.60;;;;;;;7.50;nan;102338.78;5015420;28;20474;-44
2023/04/05 07:32:42;;;;;;;14.20;9.60;;;;;;;7.87;nan;102339.78;5014437;28;20046;-44
2023/04/05 07:35:08;;;;;;;12.18;8.77;;;;;;;8.43;nan;102350.41;5015223;28;20041;-44
2023/04/05 07:37:33;;;;;;;11.40;8.65;;;;;;;8.83;nan;102352.13;5015062;28;20077;-41
2023/04/05 07:39:58;;;;;;;12.77;8.70;;;;;;;8.89;nan;102302.22;5015076;28;20034;-42
2023/04/05 07:42:24;;;;;;;9.75;7.97;;;;;;;9.53;nan;102357.19;5014866;28;20389;-45
2023/04/05 07:44:49;;;;;;;9.60;7.82;;;;;;;9.90;nan;102347.38;5014190;28;20030;-43
2023/04/05 07:47:15;;;;;;;8.90;7.45;;;;;;;10.17;nan;102349.88;5015199;28;20026;-45
2023/04/05 07:49:40;;;;;;;10.38;8.07;;;;;;;10.13;nan;102298.13;4996175;28;20034;-43
2023/04/05 07:52:06;;;;;;;12.38;8.68;;;;;;;10.47;nan;102293.50;4995491;28;20066;-47
2023/04/05 07:54:34;;;;;;;11.45;8.32;;;;;;;10.99;nan;102307.88;4995655;28;20057;-43
2023/04/05 07:57:00;;;;;;;11.77;8.55;;;;;;;10.92;nan;102308.81;4993865;28;20045;-43
2023/04/05 07:59:25;;;;;;;7.78;6.95;;;;;;;11.29;nan;102343.56;4994135;28;20026;-45
2023/04/05 08:01:51;;;;;;;11.48;8.48;;;;;;;11.52;nan;102296.72;4995158;28;20045;-44
2023/04/05 08:04:17;;;;;;;10.02;7.55;;;;;;;11.27;nan;102277.69;4994753;28;20544;-43
2023/04/05 08:06:43;;;;;;;10.65;8.15;;;;;;;11.97;nan;102331.28;4994554;28;20038;-43
2023/04/05 08:09:09;;;;;;;8.80;7.22;;;;;;;12.58;nan;102349.69;5010164;28;20492;-42
2023/04/05 08:11:35;;;;;;;10.80;7.97;;;;;;;12.11;nan;102274.75;4998151;28;20041;-45
2023/04/05 08:14:00;;;;;;;10.93;8.00;;;;;;;12.29;nan;102287.66;5013276;28;20053;-45
2023/04/05 08:16:26;;;;;;;10.18;7.13;;;;;;;12.80;nan;102285.88;5014168;28;20378;-43
2023/04/05 08:18:51;;;;;;;9.60;7.63;;;;;;;13.25;nan;102333.53;5013336;28;20041;-43
2023/04/05 08:21:16;;;;;;;11.52;7.78;;;;;;;13.34;nan;102331.53;5014230;28;20092;-43
2023/04/05 08:23:42;;;;;;;14.43;8.25;;;;;;;13.27;nan;102310.56;5014682;28;20033;-43
2023/04/05 08:26:07;;;;;;;10.73;8.15;;;;;;;13.66;nan;102328.22;5013047;28;20116;-45
2023/04/05 08:28:33;;;;;;;9.35;7.25;;;;;;;13.66;nan;102274.47;5013318;28;20038;-42
2023/04/05 08:30:58;;;;;;;7.72;6.88;;;;;;;14.03;nan;102265.63;5013015;28;20038;-44
2023/04/05 08:33:29;;;;;;;10.82;8.35;;;;;;;13.94;nan;102264.97;5014097;28;20205;-46
2023/04/05 08:35:55;;;;;;;;;;;;;;;14.59;nan;102327.81;5013624;28;20456;-41
2023/04/05 08:38:20;;;;;;;10.70;7.45;;;;;;;14.71;nan;102328.44;5013514;28;19917;-42
2023/04/05 08:40:46;;;;;;;8.35;6.80;;;;;;;14.71;nan;102344.31;5003859;28;20541;-41
2023/04/05 08:43:11;;;;;;;7.78;6.93;;;;;;;15.11;nan;102268.09;4994621;28;20054;-41
2023/04/05 08:45:43;;;;;;;9.45;7.68;;;;;;;15.02;nan;102294.88;4994523;28;20474;-43
2023/04/05 08:48:09;;;;;;;8.82;6.82;;;;;;;15.48;nan;102313.03;4994444;28;20030;-46
2023/04/05 08:50:34;;;;;;;9.65;7.13;;;;;;;15.07;nan;102272.59;4994222;28;20030;-44
2023/04/05 08:52:59;;;;;;;9.15;7.18;;;;;;;15.57;nan;102329.56;4994509;28;20318;-44
2023/04/05 08:55:25;;;;;;;8.27;7.30;;;;;;;15.23;nan;102274.84;4977779;28;20038;-44
2023/04/05 08:57:52;;;;;;;10.20;7.55;;;;;;;15.44;nan;102271.56;5012268;28;20052;-41
2023/04/05 09:00:18;;;;;;;9.10;7.72;;;;;;;15.47;nan;102260.88;5009721;28;20093;-43
2023/04/05 09:02:47;;;;;;;11.75;7.35;;;;;;;16.34;nan;102324.44;5011642;28;20061;-44
2023/04/05 09:05:13;;;;;;;9.45;7.85;;;;;;;16.64;nan;102319.06;5010529;28;20030;-43
2023/04/05 09:07:40;;;;;;;11.15;7.78;;;;;;;16.32;nan;102283.78;5010553;28;20038;-43
2023/04/05 09:10:06;;;;;;;9.07;7.20;;;;;;;16.02;nan;102313.16;5011351;28;20034;-44
2023/04/05 09:12:31;;;;;;;9.98;6.95;;;;;;;16.28;nan;102257.38;5011935;28;20121;-44
2023/04/05 09:14:59;;;;;;;12.60;6.97;;;;;;;16.77;nan;102315.94;5010645;28;20038;-44
2023/04/05 09:17:26;;;;;;;7.68;6.90;;;;;;;16.70;nan;102324.19;5011719;28;20037;-46
2023/04/05 09:19:51;;;;;;;10.93;7.00;;;;;;;16.34;nan;102268.66;5010160;28;20033;-42
2023/04/05 09:22:19;;;;;;;12.80;7.13;;;;;;;16.62;nan;102265.09;5011889;28;20056;-44
2023/04/05 09:24:46;;;;;;;7.60;6.88;;;;;;;17.79;nan;102312.19;5011664;28;20040;-44
2023/04/05 09:27:12;;;;;;;7.82;6.75;;;;;;;17.72;nan;102289.38;5011787;28;20037;-44
2023/04/05 09:29:39;;;;;;;8.27;7.43;;;;;;;17.52;nan;102291.91;5002169;28;20042;-41
2023/04/05 09:32:06;;;;;;;7.30;6.60;;;;;;;17.77;nan;102295.41;4991731;28;20034;-43
2023/04/05 09:34:32;;;;;;;9.52;7.15;;;;;;;17.31;nan;102249.22;4990520;28;20049;-43
2023/04/05 09:36:58;;;;;;;8.32;7.22;;;;;;;;;;4990805;28;20038;-44
2023/04/05 09:39:27;;;;;;;9.32;7.85;;;;;;;;;;4991942;28;20375;-42
2023/04/05 09:42:06;;;;;;;10.63;7.10;;;;;;;;;;4991486;28;20069;-43
2023/04/05 09:44:48;;;;;;;8.27;6.97;;;;;;;;;;4991677;28;20034;-44
2023/04/05 09:47:17;;;;;;;7.60;6.82;;;;;;;;;;4990849;28;20116;-41
2023/04/05 09:49:42;;;;;;;8.02;7.20;;;;;;;;;;4991201;28;20030;-42
2023/04/05 09:52:20;;;;;;;9.02;7.45;;;;;;;;;;4991118;28;20447;-43
2023/04/05 09:54:46;;;;;;;7.97;6.70;;;;;;;;;;4991568;28;20037;-42
2023/04/05 09:57:11;;;;;;;9.25;7.63;;;;;;;;;;4991381;28;20330;-42
2023/04/05 09:59:38;;;;;;;11.02;6.75;;;;;;;;;;4991237;28;20030;-43
2023/04/05 10:02:03;;;;;;;9.60;7.22;;;;;;;;;;4990322;28;20065;-45
2023/04/05 10:04:41;;;;;;;8.60;7.67;;;;;;;;;;4991275;28;20475;-42
2023/04/05 10:07:12;;;;;;;7.82;6.90;;;;;;;;;;5000303;28;20069;-40
2023/04/05 10:09:37;;;;;;;8.75;7.35;;;;;;;;;;5010747;28;20033;-43
2023/04/05 10:12:02;;;;;;;9.10;7.78;;;;;;;;;;5011136;28;20071;-41
2023/04/05 10:14:28;;;;;;;9.23;6.93;;;;;;;;;;5011041;28;20045;-41
2023/04/05 10:16:56;;;;;;;10.40;7.53;;;;;;;;;;5010838;28;20092;-42
2023/04/05 10:19:26;;;;;;;9.20;7.45;;;;;;;;;;5010869;28;20335;-43
2023/04/05 10:21:53;;;;;;;8.10;7.28;;;;;;;;;;5008748;28;20073;-44
2023/04/05 10:24:36;;;;;;;11.27;7.82;;;;;;;;;;5003703;28;20437;-46
2023/04/05 10:27:04;;;;;;;9.02;7.32;;;;;;;;;;5004867;28;20132;-42
2023/04/05 10:29:34;;;;;;;8.90;8.00;;;;;;;;;;5011154;28;20108;-43
2023/04/05 10:32:12;;;;;;;10.00;7.78;;;;;;;;;;5000717;28;20039;-43
2023/04/05 10:34:56;;;;;;;11.73;7.55;;;;;;;;;;4991213;28;20497;-44
2023/04/05 10:37:30;;;;;;;8.25;6.93;;;;;;;;;;4991195;28;20133;-43
2023/04/05 10:39:58;;;;;;;8.52;7.15;;;;;;;;;;4991357;28;20042;-44
2023/04/05 10:42:26;;;;;;;8.88;7.60;;;;;;;;;;4990987;28;20101;-43
2023/04/05 10:44:54;;;;;;;11.60;7.70;;;;;;;;;;4991254;28;20038;-45
2023/04/05 10:47:21;;;;;;;7.85;7.13;;;;;;;;;;5001614;28;20539;-41
2023/04/05 10:49:48;;;;;;;8.48;6.88;;;;;;;;;;4997482;28;20034;-41
2023/04/05 10:52:14;;;;;;;9.02;7.53;;;;;;;;;;5001293;28;20476;-43
2023/04/05 10:54:40;;;;;;;10.90;8.32;;;;;;;;;;4998993;28;20026;-42
2023/04/05 10:57:07;;;;;;;9.80;7.80;;;;;;;;;;5006186;28;20054;-44
2023/04/05 10:59:32;;;;;;;10.18;7.53;;;;;;;;;;4990637;28;20062;-42
2023/04/05 11:01:58;;;;;;;11.48;7.50;;;;;;;;;;4993668;28;20058;-45
2023/04/05 11:04:23;;;;;;;7.97;7.18;;;;;;;;;;4994930;28;20437;-43
2023/04/05 11:07:09;;;;;;;11.87;8.53;;;;;;;;;;4994581;28;20434;-45
2023/04/05 11:09:34;;;;;;;10.43;8.10;;;;;;;;;;4994417;28;20034;-42
2023/04/05 11:11:59;;;;;;;10.23;7.97;;;;;;;;;;4994618;28;20413;-43
2023/04/05 11:14:34;;;;;;;9.40;7.97;;;;;;;;;;4994496;28;20034;-43
2023/04/05 11:16:59;;;;;;;8.68;7.88;;;;;;;;;;4993880;28;20038;-45
2023/04/05 11:19:43;;;;;;;10.00;7.80;;;;;;;;;;5009235;28;20042;-43
2023/04/05 11:22:09;;;;;;;8.88;7.97;;;;;;;;;;4994748;28;20034;-45
2023/04/05 11:24:49;;;;;;;10.80;7.95;;;;;;;;;;4994389;28;20044;-42
2023/04/05 11:27:14;;;;;;;11.33;7.10;;;;;;;;;;4993764;28;20030;-45
2023/04/05 11:29:49;;;;;;;9.65;7.97;;;;;;;;;;4994239;28;20462;-44
2023/04/05 11:32:15;;;;;;;10.75;7.90;;;;;;;;;;4993786;28;20023;-45
2023/04/05 11:34:40;;;;;;;9.80;7.63;;;;;;;;;;4994375;28;20098;-44
2023/04/05 11:37:06;;;;;;;9.65;7.63;;;;;;;;;;4993856;28;20053;-43
2023/04/05 11:39:31;;;;;;;10.00;7.40;;;;;;;;;;4993973;28;20042;-43
2023/04/05 11:42:06;;;;;;;10.40;8.57;;;;;;;;;;4993615;28;20034;-43
2023/04/05 11:44:40;;;;;;;10.23;7.55;;;;;;;;;;4993979;28;20121;-43
2023/04/05 11:47:06;;;;;;;10.57;8.27;;;;;;;;;;4993965;28;20030;-42
2023/04/05 11:49:32;;;;;;;10.70;8.30;;;;;;;;;;4993391;28;20541;-45
2023/04/05 11:51:57;;;;;;;13.13;9.02;;;;;;;;;;4999025;28;20362;-43
2023/04/05 11:54:29;;;;;;;9.60;8.00;;;;;;;;;;5013544;28;20048;-43
2023/04/05 11:56:55;;;;;;;9.80;7.72;;;;;;;;;;5013233;28;20038;-43
2023/04/05 11:59:26;;;;;;;9.65;8.43;;;;;;;;;;5013380;28;20145;-43
2023/04/05 12:01:56;;;;;;;10.50;8.23;;;;;;;;;;5012545;28;20107;-45